createdAt,value
2023-04-13T00:00:58.946Z,15.00
2023-04-13T00:02:00.906Z,15.01
2023-04-13T00:03:04.675Z,15.01
2023-04-13T00:04:10.700Z,15.00
2023-04-13T00:05:14.485Z,15.00
2023-04-13T00:06:16.969Z,15.00
2023-04-13T00:07:18.943Z,15.01
2023-04-13T00:08:24.087Z,15.01
2023-04-13T00:09:26.129Z,15.00
2023-04-13T00:10:31.185Z,15.01
2023-04-13T00:11:35.105Z,15.01
2023-04-13T00:12:37.619Z,15.01
2023-04-13T00:13:39.570Z,15.02
2023-04-13T00:14:44.948Z,15.01
2023-04-13T00:15:46.954Z,15.01
2023-04-13T00:16:51.322Z,15.00
2023-04-13T00:17:57.422Z,15.00
2023-04-13T00:19:03.149Z,15.02
2023-04-13T00:20:16.088Z,15.02
2023-04-13T00:21:19.179Z,15.02
2023-04-13T00:22:29.052Z,15.02
2023-04-13T00:24:43.485Z,15.12
2023-04-13T00:25:46.092Z,15.01
2023-04-13T00:26:48.445Z,15.02
2023-04-13T00:27:50.571Z,15.02
2023-04-13T00:28:52.554Z,15.02
2023-04-13T00:29:57.337Z,15.02
2023-04-13T00:31:00.010Z,15.03
2023-04-13T00:32:02.370Z,15.04
2023-04-13T00:33:07.353Z,15.03
2023-04-13T00:34:10.077Z,15.01
2023-04-13T00:35:19.329Z,15.03
2023-04-13T00:36:22.016Z,15.02
2023-04-13T00:37:24.199Z,15.03
2023-04-13T00:38:28.077Z,15.03
2023-04-13T00:39:30.037Z,15.03
2023-04-13T00:40:32.360Z,15.02
2023-04-13T00:41:37.307Z,15.03
2023-04-13T00:42:39.935Z,15.02
2023-04-13T00:43:42.448Z,15.02
2023-04-13T00:44:47.540Z,15.03
2023-04-13T00:45:50.356Z,15.04
2023-04-13T00:46:54.266Z,15.03
2023-04-13T00:48:00.315Z,15.04
2023-04-13T00:49:02.920Z,15.03
2023-04-13T00:50:08.091Z,15.04
2023-04-13T00:51:10.272Z,15.05
2023-04-13T00:52:12.352Z,15.05
2023-04-13T00:53:16.138Z,15.05
2023-04-13T00:54:19.799Z,15.05
2023-04-13T00:55:23.710Z,15.04
2023-04-13T00:56:27.504Z,15.05
2023-04-13T00:57:31.954Z,15.04
2023-04-13T00:58:40.020Z,15.04
2023-04-13T00:59:43.096Z,15.03
2023-04-13T01:00:46.347Z,15.03
2023-04-13T01:01:48.393Z,15.03
2023-04-13T01:02:54.243Z,15.03
2023-04-13T01:03:57.631Z,15.03
2023-04-13T01:05:07.713Z,15.03
2023-04-13T01:06:25.718Z,15.02
2023-04-13T01:08:53.969Z,15.11
2023-04-13T01:10:23.194Z,15.00
2023-04-13T01:11:29.423Z,15.00
2023-04-13T01:12:59.306Z,14.99
2023-04-13T01:15:45.875Z,15.10
2023-04-13T01:17:00.529Z,14.99
2023-04-13T01:18:04.231Z,14.98
2023-04-13T01:19:10.546Z,14.98
2023-04-13T01:21:19.587Z,14.97
2023-04-13T01:25:12.334Z,14.96
2023-04-13T01:26:14.830Z,14.96
2023-04-13T01:27:16.888Z,14.97
2023-04-13T01:28:19.938Z,14.97
2023-04-13T01:29:23.087Z,14.96
2023-04-13T01:30:25.475Z,14.96
2023-04-13T01:31:29.403Z,14.95
2023-04-13T01:32:32.139Z,14.95
2023-04-13T01:33:34.171Z,14.94
2023-04-13T01:34:38.649Z,14.94
2023-04-13T01:35:43.832Z,14.94
2023-04-13T01:36:47.907Z,14.94
2023-04-13T01:37:53.045Z,14.94
2023-04-13T01:38:56.925Z,14.95
2023-04-13T01:39:59.731Z,14.95
2023-04-13T01:41:04.724Z,14.95
2023-04-13T01:42:08.614Z,14.95
2023-04-13T01:43:13.188Z,14.95
2023-04-13T01:44:27.818Z,14.95
2023-04-13T01:45:51.084Z,14.95
2023-04-13T01:46:53.325Z,14.94
2023-04-13T01:48:28.574Z,14.94
2023-04-13T01:49:35.402Z,14.94
2023-04-13T01:51:56.439Z,15.04
2023-04-13T01:53:06.858Z,14.94
2023-04-13T01:54:14.866Z,14.92
2023-04-13T01:55:19.083Z,14.93
2023-04-13T01:56:23.443Z,14.92
2023-04-13T01:57:27.553Z,14.94
2023-04-13T01:58:30.115Z,14.94
2023-04-13T01:59:34.490Z,14.94
2023-04-13T02:00:36.961Z,14.94
2023-04-13T02:01:41.199Z,14.94
2023-04-13T02:02:43.740Z,14.94
2023-04-13T02:03:45.975Z,14.94
2023-04-13T02:04:47.995Z,14.95
2023-04-13T02:05:50.370Z,14.95
2023-04-13T02:06:53.557Z,14.94
2023-04-13T02:07:57.978Z,14.95
2023-04-13T02:09:00.030Z,14.95
2023-04-13T02:10:03.415Z,14.95
2023-04-13T02:11:06.404Z,14.96
2023-04-13T02:12:10.992Z,14.96
2023-04-13T02:13:13.882Z,14.96
2023-04-13T02:14:16.315Z,14.95
2023-04-13T02:15:19.302Z,14.95
2023-04-13T02:16:21.727Z,14.96
2023-04-13T02:17:24.247Z,14.95
2023-04-13T02:18:26.421Z,14.94
2023-04-13T02:19:29.073Z,14.95
2023-04-13T02:20:34.089Z,14.94
2023-04-13T02:21:36.227Z,14.94
2023-04-13T02:22:38.258Z,14.93
2023-04-13T02:23:40.326Z,14.94
2023-04-13T02:24:42.351Z,14.94
2023-04-13T02:25:46.745Z,14.94
2023-04-13T02:26:48.499Z,14.94
2023-04-13T02:27:50.571Z,14.94
2023-04-13T02:28:52.622Z,14.93
2023-04-13T02:29:54.673Z,14.93
2023-04-13T02:30:57.203Z,14.94
2023-04-13T02:31:59.601Z,14.94
2023-04-13T02:33:02.249Z,14.94
2023-04-13T02:34:05.216Z,14.94
2023-04-13T02:35:09.143Z,14.94
2023-04-13T02:36:12.395Z,14.94
2023-04-13T02:37:19.259Z,14.95
2023-04-13T02:38:22.444Z,14.95
2023-04-13T02:39:26.276Z,14.95
2023-04-13T02:40:30.599Z,14.95
2023-04-13T02:41:33.059Z,14.95
2023-04-13T02:42:36.698Z,14.95
2023-04-13T02:43:38.888Z,14.95
2023-04-13T02:44:41.160Z,14.96
2023-04-13T02:45:43.262Z,14.95
2023-04-13T02:46:47.792Z,14.96
2023-04-13T02:47:52.173Z,14.97
2023-04-13T02:48:55.272Z,14.96
2023-04-13T02:49:57.507Z,14.96
2023-04-13T02:51:04.810Z,14.96
2023-04-13T02:52:09.031Z,14.95
2023-04-13T02:53:14.114Z,14.97
2023-04-13T02:55:33.822Z,15.05
2023-04-13T02:56:38.243Z,14.96
2023-04-13T02:57:40.294Z,14.95
2023-04-13T02:58:42.333Z,14.95
2023-04-13T02:59:46.191Z,14.96
2023-04-13T03:00:49.354Z,14.96
2023-04-13T03:01:54.326Z,14.96
2023-04-13T03:02:57.718Z,14.97
2023-04-13T03:04:01.740Z,14.97
2023-04-13T03:05:05.881Z,14.98
2023-04-13T03:06:09.881Z,14.97
2023-04-13T03:07:16.638Z,14.96
2023-04-13T03:08:20.538Z,14.96
2023-04-13T03:09:27.073Z,14.95
2023-04-13T03:10:30.737Z,14.96
2023-04-13T03:11:33.268Z,14.95
2023-04-13T03:12:40.183Z,14.95
2023-04-13T03:13:44.025Z,14.94
2023-04-13T03:14:46.608Z,14.94
2023-04-13T03:15:49.610Z,14.94
2023-04-13T03:16:52.243Z,14.93
2023-04-13T03:17:56.592Z,14.94
2023-04-13T03:18:59.473Z,14.93
2023-04-13T03:20:01.650Z,14.92
2023-04-13T03:21:05.982Z,14.94
2023-04-13T03:22:10.385Z,14.93
2023-04-13T03:23:14.274Z,14.94
2023-04-13T03:24:17.054Z,14.93
2023-04-13T03:25:19.474Z,14.94
2023-04-13T03:26:22.968Z,14.94
2023-04-13T03:27:25.434Z,14.93
2023-04-13T03:28:28.323Z,14.93
2023-04-13T03:29:31.466Z,14.94
2023-04-13T03:30:33.860Z,14.93
2023-04-13T03:31:36.456Z,14.93
2023-04-13T03:32:39.026Z,14.92
2023-04-13T03:33:41.485Z,14.93
2023-04-13T03:34:43.518Z,14.94
2023-04-13T03:35:46.936Z,14.94
2023-04-13T03:36:52.609Z,14.94
2023-04-13T03:37:55.076Z,14.93
2023-04-13T03:39:04.601Z,14.94
2023-04-13T03:40:11.970Z,14.94
2023-04-13T03:41:15.886Z,14.95
2023-04-13T03:42:19.783Z,14.95
2023-04-13T03:43:24.023Z,14.95
2023-04-13T03:44:27.909Z,14.95
2023-04-13T03:45:30.352Z,14.94
2023-04-13T03:46:34.752Z,14.95
2023-04-13T03:47:39.538Z,14.95
2023-04-13T03:48:42.824Z,14.94
2023-04-13T03:49:46.724Z,14.93
2023-04-13T03:50:49.387Z,14.94
2023-04-13T03:51:52.978Z,14.94
2023-04-13T03:52:55.217Z,14.93
2023-04-13T03:53:57.512Z,14.94
2023-04-13T03:55:00.414Z,14.93
2023-04-13T03:56:06.943Z,14.94
2023-04-13T03:57:09.156Z,14.93
2023-04-13T03:58:11.634Z,14.92
2023-04-13T03:59:14.810Z,14.92
2023-04-13T04:00:18.652Z,14.93
2023-04-13T04:01:23.141Z,14.93
2023-04-13T04:02:26.642Z,14.93
2023-04-13T04:03:29.514Z,14.94
2023-04-13T04:04:33.660Z,14.94
2023-04-13T04:05:38.234Z,14.94
2023-04-13T04:06:41.166Z,14.93
2023-04-13T04:07:45.071Z,14.94
2023-04-13T04:08:47.125Z,14.95
2023-04-13T04:09:51.754Z,14.95
2023-04-13T04:10:54.827Z,14.95
2023-04-13T04:11:57.928Z,14.95
2023-04-13T04:13:01.917Z,14.94
2023-04-13T04:14:04.665Z,14.95
2023-04-13T04:15:07.989Z,14.94
2023-04-13T04:16:11.176Z,14.95
2023-04-13T04:17:15.166Z,14.94
2023-04-13T04:18:18.072Z,14.95
2023-04-13T04:19:20.135Z,14.94
2023-04-13T04:20:23.146Z,14.94
2023-04-13T04:21:25.760Z,14.94
2023-04-13T04:22:28.805Z,14.94
2023-04-13T04:23:32.727Z,14.95
2023-04-13T04:24:36.616Z,14.96
2023-04-13T04:25:38.666Z,14.96
2023-04-13T04:26:41.566Z,14.95
2023-04-13T04:27:44.068Z,14.97
2023-04-13T04:28:46.137Z,14.96
2023-04-13T04:29:50.114Z,14.96
2023-04-13T04:30:54.401Z,14.97
2023-04-13T04:31:56.706Z,14.96
2023-04-13T04:33:00.459Z,14.97
2023-04-13T04:34:04.902Z,14.96
2023-04-13T04:35:10.776Z,14.97
2023-04-13T04:36:15.357Z,14.98
2023-04-13T04:37:20.922Z,14.98
2023-04-13T04:38:24.987Z,14.99
2023-04-13T04:39:27.319Z,15.00
2023-04-13T04:40:32.221Z,15.00
2023-04-13T04:41:34.748Z,15.01
2023-04-13T04:42:37.253Z,15.01
2023-04-13T04:43:40.598Z,15.02
2023-04-13T04:44:42.655Z,15.02
2023-04-13T04:45:45.210Z,15.03
2023-04-13T04:46:48.183Z,15.03
2023-04-13T04:47:50.566Z,15.04
2023-04-13T04:48:55.293Z,15.03
2023-04-13T04:49:58.600Z,15.04
2023-04-13T04:51:01.568Z,15.04
2023-04-13T04:52:05.456Z,15.04
2023-04-13T04:53:08.245Z,15.05
2023-04-13T04:54:10.190Z,15.05
2023-04-13T04:55:12.720Z,15.06
2023-04-13T04:56:17.044Z,15.07
2023-04-13T04:57:20.995Z,15.07
2023-04-13T04:58:23.367Z,15.09
2023-04-13T04:59:27.269Z,15.08
2023-04-13T05:00:34.725Z,15.09
2023-04-13T05:01:41.729Z,15.09
2023-04-13T05:02:45.847Z,15.10
2023-04-13T05:03:48.125Z,15.11
2023-04-13T05:04:55.619Z,15.11
2023-04-13T05:05:58.047Z,15.13
2023-04-13T05:07:01.936Z,15.12
2023-04-13T05:08:04.875Z,15.12
2023-04-13T05:09:07.741Z,15.14
2023-04-13T05:10:12.162Z,15.15
2023-04-13T05:11:16.660Z,15.14
2023-04-13T05:12:19.401Z,15.16
2023-04-13T05:13:21.985Z,15.18
2023-04-13T05:14:25.854Z,15.19
2023-04-13T05:15:28.478Z,15.19
2023-04-13T05:16:31.368Z,15.21
2023-04-13T05:17:35.479Z,15.23
2023-04-13T05:18:45.076Z,15.23
2023-04-13T05:19:48.993Z,15.24
2023-04-13T05:20:54.103Z,15.26
2023-04-13T05:21:56.278Z,15.26
2023-04-13T05:23:00.348Z,15.28
2023-04-13T05:24:02.699Z,15.30
2023-04-13T05:25:07.164Z,15.31
2023-04-13T05:26:10.584Z,15.31
2023-04-13T05:27:14.879Z,15.32
2023-04-13T05:28:17.005Z,15.32
2023-04-13T05:29:19.146Z,15.32
2023-04-13T05:30:23.037Z,15.33
2023-04-13T05:31:25.192Z,15.33
2023-04-13T05:32:27.554Z,15.32
2023-04-13T05:33:30.554Z,15.33
2023-04-13T05:34:32.925Z,15.33
2023-04-13T05:35:39.965Z,15.34
2023-04-13T05:36:42.916Z,15.35
2023-04-13T05:37:46.738Z,15.36
2023-04-13T05:38:50.700Z,15.37
2023-04-13T05:39:53.639Z,15.38
2023-04-13T05:40:57.785Z,15.39
2023-04-13T05:42:00.363Z,15.40
2023-04-13T05:43:03.475Z,15.42
2023-04-13T05:44:07.462Z,15.43
2023-04-13T05:45:10.240Z,15.44
2023-04-13T05:46:14.995Z,15.45
2023-04-13T05:47:20.365Z,15.46
2023-04-13T05:48:23.271Z,15.47
2023-04-13T05:49:27.815Z,15.47
2023-04-13T05:50:30.407Z,15.48
2023-04-13T05:51:33.373Z,15.49
2023-04-13T05:52:35.501Z,15.50
2023-04-13T05:53:38.136Z,15.52
2023-04-13T05:54:40.718Z,15.53
2023-04-13T05:55:42.812Z,15.54
2023-04-13T05:56:45.700Z,15.55
2023-04-13T05:57:48.252Z,15.56
2023-04-13T05:58:52.068Z,15.57
2023-04-13T05:59:56.475Z,15.58
2023-04-13T06:01:04.246Z,15.59
2023-04-13T06:02:06.588Z,15.59
2023-04-13T06:03:09.124Z,15.60
2023-04-13T06:04:12.028Z,15.60
2023-04-13T06:05:15.512Z,15.60
2023-04-13T06:06:17.739Z,15.61
2023-04-13T06:08:31.328Z,15.73
2023-04-13T06:09:33.908Z,15.64
2023-04-13T06:10:36.724Z,15.63
2023-04-13T06:11:39.281Z,15.64
2023-04-13T06:12:41.442Z,15.65
2023-04-13T06:13:44.013Z,15.66
2023-04-13T06:14:47.045Z,15.67
2023-04-13T06:15:49.605Z,15.68
2023-04-13T06:16:52.252Z,15.68
2023-04-13T06:17:54.404Z,15.68
2023-04-13T06:18:56.694Z,15.68
2023-04-13T06:19:59.836Z,15.69
2023-04-13T06:21:01.885Z,15.71
2023-04-13T06:22:03.827Z,15.71
2023-04-13T06:23:07.725Z,15.71
2023-04-13T06:24:10.071Z,15.73
2023-04-13T06:25:13.200Z,15.77
2023-04-13T06:26:16.454Z,15.88
2023-04-13T06:27:23.326Z,15.94
2023-04-13T06:28:25.771Z,15.97
2023-04-13T06:29:27.903Z,15.99
2023-04-13T06:30:33.114Z,16.01
2023-04-13T06:31:37.783Z,16.02
2023-04-13T06:32:41.950Z,16.01
2023-04-13T06:33:44.556Z,16.02
2023-04-13T06:34:47.077Z,16.02
2023-04-13T06:35:49.762Z,16.01
2023-04-13T06:36:51.781Z,16.01
2023-04-13T06:37:54.149Z,16.02
2023-04-13T06:38:58.640Z,16.02
2023-04-13T06:40:02.286Z,16.00
2023-04-13T06:41:05.579Z,16.00
2023-04-13T06:42:09.492Z,15.99
2023-04-13T06:44:25.069Z,16.07
2023-04-13T06:45:29.084Z,15.98
2023-04-13T06:46:31.502Z,15.96
2023-04-13T06:47:35.667Z,15.96
2023-04-13T06:48:38.445Z,15.96
2023-04-13T06:49:40.984Z,15.96
2023-04-13T06:50:44.717Z,15.96
2023-04-13T06:51:47.538Z,15.94
2023-04-13T06:52:49.493Z,15.95
2023-04-13T06:53:51.704Z,15.95
2023-04-13T06:54:54.209Z,15.94
2023-04-13T06:55:58.093Z,15.94
2023-04-13T06:57:00.238Z,15.94
2023-04-13T06:58:02.502Z,15.95
2023-04-13T06:59:05.417Z,15.94
2023-04-13T07:00:21.741Z,15.93
2023-04-13T07:01:13.509Z,15.94
2023-04-13T07:02:15.580Z,15.94
2023-04-13T07:03:18.362Z,15.94
2023-04-13T07:04:25.067Z,15.95
2023-04-13T07:05:27.978Z,15.96
2023-04-13T07:06:33.701Z,15.96
2023-04-13T07:07:36.661Z,15.97
2023-04-13T07:08:38.812Z,15.98
2023-04-13T07:09:41.171Z,15.98
2023-04-13T07:10:43.311Z,16.00
2023-04-13T07:11:47.206Z,16.00
2023-04-13T07:12:49.831Z,16.02
2023-04-13T07:13:52.697Z,16.02
2023-04-13T07:14:55.801Z,16.02
2023-04-13T07:15:58.653Z,16.03
2023-04-13T07:17:06.366Z,16.03
2023-04-13T07:18:13.267Z,16.04
2023-04-13T07:19:18.006Z,16.06
2023-04-13T07:20:20.665Z,16.06
2023-04-13T07:21:28.848Z,16.08
2023-04-13T07:22:33.666Z,16.09
2023-04-13T07:23:35.789Z,16.10
2023-04-13T07:24:37.841Z,16.12
2023-04-13T07:25:41.707Z,16.13
2023-04-13T07:26:46.344Z,16.17
2023-04-13T07:27:49.014Z,16.17
2023-04-13T07:28:52.862Z,16.19
2023-04-13T07:29:55.465Z,16.20
2023-04-13T07:30:59.672Z,16.20
2023-04-13T07:32:03.745Z,16.21
2023-04-13T07:33:06.960Z,16.22
2023-04-13T07:34:09.916Z,16.23
2023-04-13T07:35:13.810Z,16.23
2023-04-13T07:36:17.427Z,16.26
2023-04-13T07:37:20.575Z,16.27
2023-04-13T07:38:23.184Z,16.29
2023-04-13T07:39:25.259Z,16.29
2023-04-13T07:40:28.801Z,16.30
2023-04-13T07:41:35.363Z,16.32
2023-04-13T07:42:39.905Z,16.32
2023-04-13T07:43:42.436Z,16.33
2023-04-13T07:44:44.954Z,16.34
2023-04-13T07:45:47.761Z,16.35
2023-04-13T07:46:50.887Z,16.36
2023-04-13T07:47:53.444Z,16.38
2023-04-13T07:49:13.382Z,16.39
2023-04-13T07:50:17.152Z,16.40
2023-04-13T07:51:19.673Z,16.40
2023-04-13T07:52:22.204Z,16.42
2023-04-13T07:53:26.792Z,16.42
2023-04-13T07:54:28.931Z,16.43
2023-04-13T07:55:31.510Z,16.43
2023-04-13T07:56:33.975Z,16.50
2023-04-13T07:57:36.074Z,16.58
2023-04-13T07:58:38.559Z,16.69
2023-04-13T07:59:40.681Z,16.78
2023-04-13T08:00:43.477Z,16.83
2023-04-13T08:01:45.554Z,16.86
2023-04-13T08:02:48.294Z,16.86
2023-04-13T08:03:52.818Z,16.86
2023-04-13T08:04:58.951Z,16.85
2023-04-13T08:06:09.318Z,16.84
2023-04-13T08:07:11.463Z,16.81
2023-04-13T08:08:13.573Z,16.79
2023-04-13T08:09:16.581Z,16.76
2023-04-13T08:10:19.300Z,16.75
2023-04-13T08:11:21.830Z,16.73
2023-04-13T08:12:25.837Z,16.72
2023-04-13T08:13:29.120Z,16.69
2023-04-13T08:14:31.479Z,16.65
2023-04-13T08:15:35.925Z,16.63
2023-04-13T08:16:40.663Z,16.61
2023-04-13T08:17:45.441Z,16.60
2023-04-13T08:18:50.857Z,16.57
2023-04-13T08:19:55.806Z,16.56
2023-04-13T08:20:58.275Z,16.56
2023-04-13T08:22:01.811Z,16.54
2023-04-13T08:23:04.074Z,16.51
2023-04-13T08:24:08.127Z,16.50
2023-04-13T08:25:10.621Z,16.48
2023-04-13T08:26:22.910Z,16.46
2023-04-13T08:27:26.771Z,16.43
2023-04-13T08:28:32.015Z,16.41
2023-04-13T08:29:33.939Z,16.40
2023-04-13T08:30:37.419Z,16.38
2023-04-13T08:31:40.652Z,16.37
2023-04-13T08:32:45.912Z,16.37
2023-04-13T08:33:49.246Z,16.34
2023-04-13T08:34:51.273Z,16.33
2023-04-13T08:35:53.780Z,16.33
2023-04-13T08:36:57.031Z,16.31
2023-04-13T08:38:01.650Z,16.30
2023-04-13T08:39:04.320Z,16.28
2023-04-13T08:40:09.584Z,16.29
2023-04-13T08:41:11.790Z,16.28
2023-04-13T08:42:14.778Z,16.26
2023-04-13T08:43:19.538Z,16.26
2023-04-13T08:44:21.790Z,16.25
2023-04-13T08:45:25.349Z,16.24
2023-04-13T08:46:34.990Z,16.22
2023-04-13T08:47:37.763Z,16.21
2023-04-13T08:48:52.686Z,16.20
2023-04-13T08:49:44.417Z,16.18
2023-04-13T08:50:54.632Z,16.18
2023-04-13T08:51:56.672Z,16.17
2023-04-13T08:52:59.789Z,16.16
2023-04-13T08:54:01.893Z,16.15
2023-04-13T08:55:08.534Z,16.15
2023-04-13T08:56:14.561Z,16.13
2023-04-13T08:57:18.654Z,16.14
2023-04-13T08:58:20.788Z,16.15
2023-04-13T08:59:22.851Z,16.13
2023-04-13T09:00:27.388Z,16.13
2023-04-13T09:01:30.928Z,16.13
2023-04-13T09:02:33.893Z,16.13
2023-04-13T09:03:45.801Z,16.12
2023-04-13T09:06:04.978Z,16.21
2023-04-13T09:07:17.662Z,16.11
2023-04-13T09:08:20.294Z,16.11
2023-04-13T09:09:26.979Z,16.11
2023-04-13T09:10:30.860Z,16.11
2023-04-13T09:11:35.978Z,16.11
2023-04-13T09:12:40.643Z,16.12
2023-04-13T09:15:04.280Z,16.24
2023-04-13T09:16:09.105Z,16.15
2023-04-13T09:17:31.127Z,16.15
2023-04-13T09:18:35.065Z,16.16
2023-04-13T09:19:39.135Z,16.17
2023-04-13T09:20:44.121Z,16.17
2023-04-13T09:21:48.293Z,16.18
2023-04-13T09:22:52.480Z,16.19
2023-04-13T09:23:58.948Z,16.19
2023-04-13T09:25:07.094Z,16.21
2023-04-13T09:26:09.941Z,16.21
2023-04-13T09:28:30.125Z,16.32
2023-04-13T09:29:36.130Z,16.24
2023-04-13T09:30:39.364Z,16.26
2023-04-13T09:31:43.647Z,16.26
2023-04-13T09:32:48.177Z,16.28
2023-04-13T09:33:51.884Z,16.30
2023-04-13T09:35:06.173Z,16.31
2023-04-13T09:36:13.927Z,16.32
2023-04-13T09:37:16.010Z,16.34
2023-04-13T09:38:19.903Z,16.36
2023-04-13T09:39:27.121Z,16.37
2023-04-13T09:41:47.408Z,16.50
2023-04-13T09:42:56.323Z,16.40
2023-04-13T09:44:02.540Z,16.41
2023-04-13T09:45:06.681Z,16.42
2023-04-13T09:46:13.483Z,16.41
2023-04-13T09:47:15.771Z,16.41
2023-04-13T09:48:21.671Z,16.41
2023-04-13T09:49:24.279Z,16.42
2023-04-13T09:50:36.167Z,16.41
2023-04-13T09:51:39.602Z,16.42
2023-04-13T09:52:41.641Z,16.42
2023-04-13T09:53:46.909Z,16.41
2023-04-13T09:54:54.207Z,16.41
2023-04-13T09:55:59.555Z,16.41
2023-04-13T09:58:18.768Z,16.52
2023-04-13T09:59:31.756Z,16.41
2023-04-13T10:01:50.751Z,16.51
2023-04-13T10:02:53.093Z,16.39
2023-04-13T10:03:55.348Z,16.38
2023-04-13T10:04:58.197Z,16.37
2023-04-13T10:06:00.778Z,16.36
2023-04-13T10:07:05.628Z,16.36
2023-04-13T10:08:08.196Z,16.33
2023-04-13T10:09:10.575Z,16.34
2023-04-13T10:10:13.656Z,16.32
2023-04-13T10:11:15.826Z,16.32
2023-04-13T10:12:18.804Z,16.30
2023-04-13T10:13:25.124Z,16.30
2023-04-13T10:14:31.641Z,16.29
2023-04-13T10:16:02.145Z,16.26
2023-04-13T10:17:08.411Z,16.25
2023-04-13T10:18:36.923Z,16.22
2023-04-13T10:19:42.321Z,16.20
2023-04-13T10:20:44.592Z,16.17
2023-04-13T10:21:48.431Z,16.16
2023-04-13T10:22:51.709Z,16.13
2023-04-13T10:23:54.110Z,16.12
2023-04-13T10:24:58.574Z,16.09
2023-04-13T10:26:00.679Z,16.09
2023-04-13T10:27:20.531Z,16.07
2023-04-13T10:28:24.064Z,16.06
2023-04-13T10:29:30.892Z,16.04
2023-04-13T10:30:38.076Z,16.02
2023-04-13T10:31:47.031Z,16.02
2023-04-13T10:33:06.160Z,15.99
2023-04-13T10:34:09.838Z,15.98
2023-04-13T10:35:14.073Z,15.97
2023-04-13T10:36:18.796Z,15.95
2023-04-13T10:37:30.173Z,15.95
2023-04-13T10:38:47.168Z,15.94
2023-04-13T10:39:51.448Z,15.93
2023-04-13T10:40:55.254Z,15.98
2023-04-13T10:42:10.197Z,16.08
2023-04-13T10:43:29.741Z,16.13
2023-04-13T10:44:55.927Z,16.17
2023-04-13T10:46:10.933Z,16.20
2023-04-13T10:47:14.197Z,16.21
2023-04-13T10:48:28.661Z,16.20
2023-04-13T10:49:33.110Z,16.21
2023-04-13T10:50:38.103Z,16.19
2023-04-13T10:51:42.452Z,16.17
2023-04-13T10:53:03.201Z,16.16
2023-04-13T10:54:07.751Z,16.16
2023-04-13T10:55:09.804Z,16.15
2023-04-13T10:56:18.071Z,16.12
2023-04-13T10:57:23.026Z,16.11
2023-04-13T10:58:27.163Z,16.08
2023-04-13T11:00:56.025Z,16.16
2023-04-13T11:01:59.119Z,16.05
2023-04-13T11:03:01.395Z,16.03
2023-04-13T11:04:06.803Z,16.03
2023-04-13T11:05:09.031Z,16.03
2023-04-13T11:06:11.652Z,16.01
2023-04-13T11:07:16.192Z,16.01
2023-04-13T11:08:20.468Z,16.01
2023-04-13T11:09:22.617Z,16.01
2023-04-13T11:10:25.863Z,16.00
2023-04-13T11:11:28.509Z,16.00
2023-04-13T11:12:30.469Z,15.98
2023-04-13T11:13:32.518Z,15.98
2023-04-13T11:14:34.606Z,15.98
2023-04-13T11:15:36.560Z,15.97
2023-04-13T11:16:45.062Z,15.97
2023-04-13T11:17:54.795Z,15.97
2023-04-13T11:19:03.526Z,15.96
2023-04-13T11:20:07.800Z,15.96
2023-04-13T11:21:14.827Z,15.95
2023-04-13T11:22:18.050Z,15.95
2023-04-13T11:23:23.061Z,15.94
2023-04-13T11:25:36.798Z,16.03
2023-04-13T11:26:39.892Z,15.93
2023-04-13T11:27:42.355Z,15.92
2023-04-13T11:28:46.966Z,15.91
2023-04-13T11:29:59.630Z,15.91
2023-04-13T11:31:01.689Z,15.90
2023-04-13T11:33:13.099Z,15.99
2023-04-13T11:34:24.024Z,15.88
2023-04-13T11:35:26.120Z,15.89
2023-04-13T11:36:28.353Z,15.88
2023-04-13T11:38:43.658Z,15.98
2023-04-13T11:39:45.617Z,15.89
2023-04-13T11:40:49.486Z,15.88
2023-04-13T11:41:51.473Z,15.89
2023-04-13T11:42:55.225Z,15.89
2023-04-13T11:43:58.275Z,15.88
2023-04-13T11:45:00.313Z,15.88
2023-04-13T11:46:02.523Z,15.88
2023-04-13T11:47:05.435Z,15.88
2023-04-13T11:48:07.393Z,15.87
2023-04-13T11:49:09.354Z,15.87
2023-04-13T11:50:14.825Z,15.87
2023-04-13T11:51:16.808Z,15.85
2023-04-13T11:52:19.343Z,15.87
2023-04-13T11:53:21.285Z,15.86
2023-04-13T11:54:23.236Z,15.86
2023-04-13T11:55:25.415Z,15.86
2023-04-13T11:56:27.734Z,15.88
2023-04-13T11:57:33.584Z,15.87
2023-04-13T11:58:37.446Z,15.87
2023-04-13T11:59:39.434Z,15.86
2023-04-13T12:00:41.699Z,15.86
2023-04-13T12:01:49.963Z,15.87
2023-04-13T12:06:37.825Z,15.99
2023-04-13T12:07:40.828Z,15.88
2023-04-13T12:08:43.780Z,15.88
2023-04-13T12:12:29.966Z,15.99
2023-04-13T12:13:20.311Z,15.89
2023-04-13T12:15:43.467Z,16.00
2023-04-13T12:17:03.090Z,15.91
2023-04-13T12:19:49.050Z,15.94
2023-04-13T12:20:52.231Z,15.94
2023-04-13T12:24:00.518Z,15.98
2023-04-13T12:25:17.749Z,15.99
2023-04-13T12:27:22.348Z,16.01
2023-04-13T12:34:06.741Z,16.16
2023-04-13T12:35:09.229Z,16.06
2023-04-13T12:36:11.957Z,16.07
2023-04-13T12:37:13.926Z,16.07
2023-04-13T12:38:16.248Z,16.08
2023-04-13T12:39:19.304Z,16.08
2023-04-13T12:40:21.949Z,16.08
2023-04-13T12:41:23.928Z,16.08
2023-04-13T12:42:25.828Z,16.09
2023-04-13T12:43:28.012Z,16.08
2023-04-13T12:44:33.131Z,16.09
2023-04-13T12:45:34.680Z,16.09
2023-04-13T12:46:37.066Z,16.08
2023-04-13T12:47:40.356Z,16.09
2023-04-13T12:48:42.411Z,16.09
2023-04-13T12:49:45.568Z,16.08
2023-04-13T12:50:48.277Z,16.09
2023-04-13T12:51:50.327Z,16.09
2023-04-13T12:52:52.285Z,16.10
2023-04-13T12:53:55.316Z,16.09
2023-04-13T12:55:00.826Z,16.09
2023-04-13T12:56:04.485Z,16.10
2023-04-13T12:57:07.640Z,16.10
2023-04-13T12:58:10.573Z,16.10
2023-04-13T12:59:13.161Z,16.11
2023-04-13T13:00:17.594Z,16.11
2023-04-13T13:01:22.452Z,16.11
2023-04-13T13:02:26.848Z,16.12
2023-04-13T13:03:29.398Z,16.12
2023-04-13T13:04:31.774Z,16.12
2023-04-13T13:05:34.949Z,16.12
2023-04-13T13:06:38.295Z,16.13
2023-04-13T13:07:40.302Z,16.12
2023-04-13T13:08:42.544Z,16.13
2023-04-13T13:09:45.603Z,16.12
2023-04-13T13:10:49.114Z,16.13
2023-04-13T13:11:51.199Z,16.12
2023-04-13T13:12:53.174Z,16.12
2023-04-13T13:13:57.263Z,16.13
2023-04-13T13:15:00.283Z,16.13
2023-04-13T13:16:05.490Z,16.12
2023-04-13T13:17:07.633Z,16.12
2023-04-13T13:18:10.662Z,16.13
2023-04-13T13:19:13.173Z,16.13
2023-04-13T13:20:16.404Z,16.13
2023-04-13T13:21:18.409Z,16.14
2023-04-13T13:22:21.220Z,16.14
2023-04-13T13:23:24.182Z,16.15
2023-04-13T13:24:28.321Z,16.16
2023-04-13T13:25:32.187Z,16.16
2023-04-13T13:27:00.271Z,16.16
2023-04-13T13:28:10.350Z,16.16
2023-04-13T13:28:48.562Z,16.17
2023-04-13T13:29:50.623Z,16.18
2023-04-13T13:30:53.993Z,16.18
2023-04-13T13:31:56.628Z,16.17
2023-04-13T13:32:58.799Z,16.18
2023-04-13T13:34:00.980Z,16.18
2023-04-13T13:35:04.108Z,16.17
2023-04-13T13:36:07.401Z,16.18
2023-04-13T13:37:10.461Z,16.17
2023-04-13T13:38:12.479Z,16.17
2023-04-13T13:39:14.554Z,16.17
2023-04-13T13:40:18.633Z,16.16
2023-04-13T13:41:20.601Z,16.15
2023-04-13T13:42:22.576Z,16.15
2023-04-13T13:43:25.326Z,16.15
2023-04-13T13:44:27.337Z,16.15
2023-04-13T13:45:31.667Z,16.14
2023-04-13T13:46:35.724Z,16.15
2023-04-13T13:47:39.386Z,16.15
2023-04-13T13:48:42.794Z,16.15
2023-04-13T13:51:11.797Z,16.26
2023-04-13T13:52:14.523Z,16.16
2023-04-13T13:53:21.798Z,16.15
2023-04-13T13:54:24.402Z,16.15
2023-04-13T13:55:26.364Z,16.15
2023-04-13T13:56:28.881Z,16.16
2023-04-13T13:57:31.594Z,16.15
2023-04-13T13:58:34.573Z,16.16
2023-04-13T13:59:36.621Z,16.16
2023-04-13T14:00:39.123Z,16.15
2023-04-13T14:01:41.592Z,16.14
2023-04-13T14:02:44.959Z,16.14
2023-04-13T14:03:48.872Z,16.12
2023-04-13T14:04:50.996Z,16.13
2023-04-13T14:05:54.082Z,16.13
2023-04-13T14:06:56.183Z,16.13
2023-04-13T14:07:58.377Z,16.12
2023-04-13T14:09:00.461Z,16.13
2023-04-13T14:10:03.933Z,16.13
2023-04-13T14:11:06.017Z,16.13
2023-04-13T14:12:07.980Z,16.12
2023-04-13T14:13:10.026Z,16.13
2023-04-13T14:14:21.360Z,16.12
2023-04-13T14:15:17.115Z,16.11
2023-04-13T14:16:22.406Z,16.12
2023-04-13T14:17:24.504Z,16.12
2023-04-13T14:18:26.563Z,16.11
2023-04-13T14:19:29.008Z,16.11
2023-04-13T14:20:31.096Z,16.11
2023-04-13T14:21:33.394Z,16.12
2023-04-13T14:22:36.513Z,16.12
2023-04-13T14:23:38.514Z,16.12
2023-04-13T14:24:40.481Z,16.11
2023-04-13T14:25:42.929Z,16.10
2023-04-13T14:26:45.895Z,16.12
2023-04-13T14:27:47.946Z,16.12
2023-04-13T14:28:49.955Z,16.10
2023-04-13T14:29:52.492Z,16.09
2023-04-13T14:30:54.688Z,16.10
2023-04-13T14:31:57.047Z,16.09